createdAt,value
2019-04-03T00:00:20.553Z,68.59
2019-04-03T00:06:26.854Z,68.67
2019-04-03T00:12:32.631Z,68.84
2019-04-03T00:18:39.175Z,68.92
2019-04-03T00:24:45.023Z,68.90
2019-04-03T00:30:52.967Z,68.79
2019-04-03T00:36:59.306Z,69.03
2019-04-03T00:43:05.067Z,69.14
2019-04-03T00:49:10.831Z,68.98
2019-04-03T00:55:17.502Z,68.85
2019-04-03T01:01:24.733Z,68.82
2019-04-03T01:07:31.044Z,68.53
2019-04-03T01:13:37.417Z,68.00
2019-04-03T01:19:43.482Z,67.56
2019-04-03T01:25:49.561Z,67.24
2019-04-03T01:31:55.340Z,66.87
2019-04-03T01:38:01.135Z,66.81
2019-04-03T01:44:07.517Z,66.92
2019-04-03T01:50:13.983Z,66.87
2019-04-03T01:56:19.915Z,66.90
2019-04-03T02:02:25.864Z,67.01
2019-04-03T02:08:31.792Z,67.15
2019-04-03T02:14:38.082Z,67.05
2019-04-03T02:20:43.915Z,67.12
2019-04-03T02:26:49.673Z,67.34
2019-04-03T02:32:56.863Z,67.88
2019-04-03T02:39:09.337Z,68.31
2019-04-03T02:45:16.524Z,68.82
2019-04-03T02:51:22.346Z,69.24
2019-04-03T02:57:28.798Z,69.30
2019-04-03T03:03:34.679Z,68.78
2019-04-03T03:09:45.552Z,67.90
2019-04-03T03:15:50.350Z,67.31
2019-04-03T03:22:00.696Z,67.10
2019-04-03T03:28:07.312Z,66.85
2019-04-03T03:34:13.553Z,66.39
2019-04-03T03:40:19.506Z,66.32
2019-04-03T03:46:27.774Z,66.15
2019-04-03T03:52:36.695Z,65.64
2019-04-03T03:58:45.906Z,65.34
2019-04-03T04:04:51.410Z,65.07
2019-04-03T04:10:59.559Z,65.18
2019-04-03T04:17:08.848Z,65.40
2019-04-03T04:23:14.278Z,65.60
2019-04-03T04:29:21.026Z,65.46
2019-04-03T04:35:27.374Z,65.28
2019-04-03T04:41:33.645Z,65.36
2019-04-03T04:47:39.443Z,65.34
2019-04-03T04:53:45.247Z,65.21
2019-04-03T04:59:51.085Z,65.93
2019-04-03T05:05:58.305Z,66.34
2019-04-03T05:12:04.484Z,66.34
2019-04-03T05:18:10.228Z,66.62
2019-04-03T05:24:17.869Z,66.58
2019-04-03T05:30:36.500Z,66.68
2019-04-03T05:36:42.713Z,66.90
2019-04-03T05:42:49.345Z,66.65
2019-04-03T05:48:55.706Z,67.19
2019-04-03T05:55:01.592Z,67.48
2019-04-03T06:01:10.595Z,68.22
2019-04-03T06:07:17.472Z,69.06
2019-04-03T06:13:24.194Z,70.23
2019-04-03T06:19:30.409Z,70.13
2019-04-03T06:25:37.058Z,69.09
2019-04-03T06:31:42.871Z,68.44
2019-04-03T06:37:48.668Z,67.84
2019-04-03T06:43:54.712Z,67.72
2019-04-03T06:50:00.442Z,67.77
2019-04-03T06:56:08.700Z,66.92
2019-04-03T07:02:13.858Z,66.91
2019-04-03T07:08:30.114Z,66.67
2019-04-03T07:14:27.727Z,66.23
2019-04-03T07:20:33.988Z,65.96
2019-04-03T07:26:40.685Z,66.05
2019-04-03T07:32:46.431Z,64.64
2019-04-03T07:38:52.278Z,65.36
2019-04-03T07:44:58.181Z,65.39
2019-04-03T07:51:04.202Z,66.50
2019-04-03T07:57:10.669Z,67.31
2019-04-03T08:03:20.332Z,66.47
2019-04-03T08:09:24.839Z,65.32
2019-04-03T08:15:30.907Z,65.63
2019-04-03T08:21:37.013Z,64.90
2019-04-03T08:27:42.954Z,64.10
2019-04-03T08:33:49.660Z,63.60
2019-04-03T08:39:57.661Z,62.50
2019-04-03T08:46:03.351Z,62.00
2019-04-03T08:52:09.321Z,61.90
2019-04-03T08:58:15.401Z,61.96
2019-04-03T09:04:22.094Z,61.36
2019-04-03T09:10:29.890Z,61.04
2019-04-03T09:16:41.956Z,61.00
2019-04-03T09:22:47.929Z,62.20
2019-04-03T09:28:53.943Z,60.83
2019-04-03T09:35:01.337Z,60.41
2019-04-03T09:41:07.625Z,60.98
2019-04-03T09:47:13.945Z,60.43
2019-04-03T09:53:19.907Z,60.21
2019-04-03T09:59:25.686Z,60.74
2019-04-03T10:05:31.710Z,61.44
2019-04-03T10:11:39.238Z,61.13
2019-04-03T10:17:46.425Z,61.25
2019-04-03T10:23:52.596Z,62.48
2019-04-03T10:29:58.505Z,61.82
2019-04-03T10:36:05.155Z,60.02
2019-04-03T10:42:11.295Z,59.77
2019-04-03T10:48:17.799Z,60.54
2019-04-03T10:54:25.082Z,59.86
2019-04-03T11:00:31.988Z,60.09
2019-04-03T11:06:38.029Z,59.84
2019-04-03T11:12:44.291Z,60.32
2019-04-03T11:18:58.987Z,58.65
2019-04-03T11:24:57.779Z,57.53
2019-04-03T11:31:05.044Z,57.17
2019-04-03T11:37:10.994Z,56.85
2019-04-03T11:43:18.892Z,57.01
2019-04-03T11:49:24.819Z,56.36
2019-04-03T11:55:30.970Z,56.91
2019-04-03T12:01:37.416Z,56.83
2019-04-03T12:07:43.750Z,56.71
2019-04-03T12:13:49.833Z,56.85
2019-04-03T12:19:55.796Z,56.35
2019-04-03T12:26:03.804Z,56.11
2019-04-03T12:32:10.400Z,54.76
2019-04-03T12:38:16.240Z,54.46
2019-04-03T12:44:22.653Z,53.40
2019-04-03T12:50:28.853Z,53.54
2019-04-03T12:56:35.997Z,53.57
2019-04-03T13:02:42.440Z,52.92
2019-04-03T13:08:49.509Z,52.58
2019-04-03T13:14:56.087Z,52.71
2019-04-03T13:21:02.144Z,52.87
2019-04-03T13:27:08.040Z,52.54
2019-04-03T13:33:16.564Z,53.02
2019-04-03T13:39:21.481Z,52.40
2019-04-03T13:45:27.264Z,52.48
2019-04-03T13:51:33.167Z,53.31
2019-04-03T13:57:38.934Z,52.95
2019-04-03T14:03:44.806Z,53.54
2019-04-03T14:09:54.783Z,53.03
2019-04-03T14:15:58.772Z,50.78
2019-04-03T14:22:05.206Z,49.86
2019-04-03T14:28:11.184Z,49.65
2019-04-03T14:34:17.134Z,47.81
2019-04-03T14:40:22.987Z,48.06
2019-04-03T14:46:29.163Z,48.57
2019-04-03T14:52:35.282Z,49.17
2019-04-03T14:58:41.536Z,48.61
2019-04-03T15:04:47.409Z,48.91
2019-04-03T15:10:53.586Z,49.66
2019-04-03T15:16:59.724Z,50.04
2019-04-03T15:23:06.002Z,50.25
2019-04-03T15:29:12.206Z,49.09
2019-04-03T15:35:18.785Z,48.03
2019-04-03T15:41:27.775Z,48.05
2019-04-03T15:47:36.510Z,48.85
2019-04-03T15:53:39.741Z,49.30
2019-04-03T15:59:45.744Z,49.65
2019-04-03T16:05:51.956Z,50.17
2019-04-03T16:12:00.242Z,50.74
2019-04-03T16:18:07.127Z,51.38
2019-04-03T16:24:14.003Z,51.66
2019-04-03T16:30:20.014Z,51.73
2019-04-03T16:36:25.820Z,52.03
2019-04-03T16:42:32.185Z,52.34
2019-04-03T16:48:39.237Z,52.92
2019-04-03T16:54:46.308Z,53.04
2019-04-03T17:01:05.738Z,51.41
2019-04-03T17:07:11.985Z,52.76
2019-04-03T17:13:18.894Z,53.19
2019-04-03T17:19:27.236Z,53.48
2019-04-03T17:25:44.520Z,53.86
2019-04-03T17:31:40.568Z,54.03
2019-04-03T17:37:46.330Z,54.18
2019-04-03T17:43:52.361Z,54.02
2019-04-03T17:49:59.815Z,54.47
2019-04-03T17:56:05.888Z,55.05
2019-04-03T18:02:12.006Z,55.26
2019-04-03T18:08:21.232Z,55.56
2019-04-03T18:14:27.221Z,55.53
2019-04-03T18:20:34.655Z,55.52
2019-04-03T18:26:44.808Z,56.15
2019-04-03T18:32:59.120Z,56.92
2019-04-03T18:39:09.706Z,57.56
2019-04-03T18:45:24.929Z,58.23
2019-04-03T18:51:23.824Z,58.27
2019-04-03T18:57:32.860Z,58.19
2019-04-03T19:03:38.684Z,58.06
2019-04-03T19:09:44.505Z,58.15
2019-04-03T19:15:50.414Z,58.01
2019-04-03T19:21:56.187Z,58.23
2019-04-03T19:28:04.027Z,58.40
2019-04-03T19:34:10.145Z,58.39
2019-04-03T19:40:16.483Z,58.39
2019-04-03T19:46:22.834Z,58.54
2019-04-03T19:52:29.184Z,58.57
2019-04-03T19:58:34.974Z,58.76
2019-04-03T20:04:40.760Z,59.22
2019-04-03T20:10:49.128Z,59.12
2019-04-03T20:16:54.996Z,59.44
2019-04-03T20:23:00.874Z,59.74
2019-04-03T20:29:07.824Z,59.87
2019-04-03T20:35:17.962Z,60.20
2019-04-03T20:41:23.336Z,60.24
2019-04-03T20:47:29.225Z,60.54
2019-04-03T20:53:35.277Z,61.00
2019-04-03T20:59:42.949Z,60.55
2019-04-03T21:05:49.295Z,60.53
2019-04-03T21:11:55.545Z,60.57
2019-04-03T21:18:01.497Z,60.55
2019-04-03T21:24:07.486Z,60.72
2019-04-03T21:30:13.692Z,61.26
2019-04-03T21:36:19.854Z,61.51
2019-04-03T21:42:26.988Z,61.86
2019-04-03T21:48:33.366Z,62.49
2019-04-03T21:54:39.264Z,62.46
2019-04-03T22:01:22.176Z,62.44
2019-04-03T22:07:29.031Z,63.04
2019-04-03T22:13:35.105Z,62.95
2019-04-03T22:19:41.095Z,63.04
2019-04-03T22:25:46.809Z,63.26
2019-04-03T22:31:54.411Z,63.12
2019-04-03T22:38:00.490Z,63.01
2019-04-03T22:44:06.629Z,63.12
2019-04-03T22:50:12.685Z,63.48
2019-04-03T22:56:18.758Z,63.71
2019-04-03T23:02:24.546Z,63.62
2019-04-03T23:08:30.523Z,63.50
2019-04-03T23:14:38.198Z,63.36
2019-04-03T23:20:44.564Z,63.36
2019-04-03T23:26:50.951Z,63.53
2019-04-03T23:32:56.682Z,63.58
2019-04-03T23:39:02.613Z,63.87
2019-04-03T23:45:09.258Z,64.51
2019-04-03T23:51:22.946Z,64.52
2019-04-03T23:57:22.597Z,65.04
